Langston, AL (35755)

4:24 PM CDT on July 30, 2016 (GMT -0500)
PlaygroundShores | | Change Station

Elev 610 ft 34.41 °N, 86.26 °W | Updated 4 minutes ago

Clear
Clear
76.4 °F
Feels Like 77 °F
N
3.0
Wind Variable Wind from SSW
Gusts 6.0 mph

Today
High -- | Low -- °F
--% Chance of Precip.
Yesterday
High -- | Low -- °F
Precip. -- in
Pressure 30.02 in
Visibility 10.0 miles
Clouds Clear
Heat Index 77 °F
Dew Point 73 °F
Humidity 88%
Rainfall 0.07 in
Snow Depth Not available.
5:54 AM 7:47 PM
Waning Crescent, 11% visible
METAR K8A0 302115Z AUTO 23004KT 10SM CLR 23/23 A3002 RMK AO2
Pressure 30.02 in
Visibility 10.0 miles
Clouds Clear
Heat Index 77 °F
Dew Point 73 °F
Humidity 88%
Rainfall 0.07 in
Snow Depth Not available.
5:54 AM 7:47 PM
Waning Crescent, 11% visible
METAR K8A0 302115Z AUTO 23004KT 10SM CLR 23/23 A3002 RMK AO2

10-Day Weather Forecast

Almanac

Astronomy

Jul. 30, 2016 Rise Set
Actual Time
Civil Twilight
Nautical Twilight
Astronomical Twilight
Moon
Length of Visible Light
Length of Day
Tomorrow will be .
, % of the Moon is Illuminated

Today's Extremes

State Highs State Lows

Community

WunderPhotos

Upload Photos

1,928,648 photos uploaded!

WunderBlog® & News

Nearby

Air Quality

  Air Quality AQ Index Pollutant
Not available.

Snow Depth

Station Depth Elevation

Earthquake Activity

City Distance Mag. Time & Date
Minimum magnitude displayed is 2.5.

Coastal Water Temperatures

Place Temperature

Stations

Nearby Weather Stations

Station Location Temp. Windchill Dew Point Humidity Wind Precip. Elev Updated Type
                   

Watches & Warnings

There are currently no watches in effect.